sensor_id;sensor_type;location;lat;lon;timestamp;P1;durP1;ratioP1;P2;durP2;ratioP2
47103;SDS011;32853;52.164;5.400;2023-06-10T00:00:28;6.13;;;2.38;;
47103;SDS011;32853;52.164;5.400;2023-06-10T00:02:55;5.43;;;2.75;;
47103;SDS011;32853;52.164;5.400;2023-06-10T00:05:21;4.05;;;2.28;;
47103;SDS011;32853;52.164;5.400;2023-06-10T00:07:46;3.90;;;2.53;;
47103;SDS011;32853;52.164;5.400;2023-06-10T00:10:13;6.50;;;3.50;;
47103;SDS011;32853;52.164;5.400;2023-06-10T00:12:38;4.88;;;2.40;;
47103;SDS011;32853;52.164;5.400;2023-06-10T00:15:04;3.17;;;2.25;;
47103;SDS011;32853;52.164;5.400;2023-06-10T00:17:31;9.32;;;2.53;;
47103;SDS011;32853;52.164;5.400;2023-06-10T00:19:58;4.28;;;2.22;;
47103;SDS011;32853;52.164;5.400;2023-06-10T00:22:25;7.72;;;2.92;;
47103;SDS011;32853;52.164;5.400;2023-06-10T00:24:54;5.38;;;1.95;;
47103;SDS011;32853;52.164;5.400;2023-06-10T00:27:28;4.88;;;2.50;;
47103;SDS011;32853;52.164;5.400;2023-06-10T00:29:56;6.13;;;2.47;;
47103;SDS011;32853;52.164;5.400;2023-06-10T00:32:22;3.90;;;2.08;;
47103;SDS011;32853;52.164;5.400;2023-06-10T00:34:47;5.50;;;2.78;;
47103;SDS011;32853;52.164;5.400;2023-06-10T00:37:19;9.10;;;2.58;;
47103;SDS011;32853;52.164;5.400;2023-06-10T00:39:49;4.82;;;2.45;;
47103;SDS011;32853;52.164;5.400;2023-06-10T00:42:15;6.07;;;1.73;;
47103;SDS011;32853;52.164;5.400;2023-06-10T00:44:40;6.13;;;2.65;;
47103;SDS011;32853;52.164;5.400;2023-06-10T00:47:06;8.38;;;2.83;;
47103;SDS011;32853;52.164;5.400;2023-06-10T00:49:32;10.10;;;2.92;;
47103;SDS011;32853;52.164;5.400;2023-06-10T00:51:59;4.22;;;2.40;;
47103;SDS011;32853;52.164;5.400;2023-06-10T00:54:24;6.03;;;2.75;;
47103;SDS011;32853;52.164;5.400;2023-06-10T00:56:50;7.22;;;2.40;;
47103;SDS011;32853;52.164;5.400;2023-06-10T00:59:17;11.00;;;2.58;;
47103;SDS011;32853;52.164;5.400;2023-06-10T01:01:42;6.53;;;3.10;;
47103;SDS011;32853;52.164;5.400;2023-06-10T01:04:08;10.00;;;2.83;;
47103;SDS011;32853;52.164;5.400;2023-06-10T01:09:36;8.18;;;3.47;;
47103;SDS011;32853;52.164;5.400;2023-06-10T01:12:12;4.45;;;2.38;;
47103;SDS011;32853;52.164;5.400;2023-06-10T01:14:39;4.35;;;2.40;;
47103;SDS011;32853;52.164;5.400;2023-06-10T01:17:09;5.55;;;2.50;;
47103;SDS011;32853;52.164;5.400;2023-06-10T01:19:35;5.00;;;2.30;;
47103;SDS011;32853;52.164;5.400;2023-06-10T01:22:01;4.03;;;2.28;;
47103;SDS011;32853;52.164;5.400;2023-06-10T01:24:27;7.03;;;2.65;;
47103;SDS011;32853;52.164;5.400;2023-06-10T01:26:54;4.75;;;2.83;;
47103;SDS011;32853;52.164;5.400;2023-06-10T01:29:28;6.30;;;2.60;;
47103;SDS011;32853;52.164;5.400;2023-06-10T01:34:54;7.45;;;2.78;;
47103;SDS011;32853;52.164;5.400;2023-06-10T01:37:21;5.43;;;2.60;;
47103;SDS011;32853;52.164;5.400;2023-06-10T01:39:49;6.93;;;2.78;;
47103;SDS011;32853;52.164;5.400;2023-06-10T01:42:18;5.03;;;2.78;;
47103;SDS011;32853;52.164;5.400;2023-06-10T01:44:43;4.63;;;2.47;;
47103;SDS011;32853;52.164;5.400;2023-06-10T01:47:12;8.48;;;2.53;;
47103;SDS011;32853;52.164;5.400;2023-06-10T01:49:37;5.57;;;2.88;;
47103;SDS011;32853;52.164;5.400;2023-06-10T01:52:03;8.98;;;3.28;;
47103;SDS011;32853;52.164;5.400;2023-06-10T01:54:28;4.97;;;2.83;;
47103;SDS011;32853;52.164;5.400;2023-06-10T01:56:54;6.80;;;2.88;;
47103;SDS011;32853;52.164;5.400;2023-06-10T01:59:19;6.25;;;2.47;;
47103;SDS011;32853;52.164;5.400;2023-06-10T02:01:44;5.97;;;2.72;;
47103;SDS011;32853;52.164;5.400;2023-06-10T02:04:10;7.30;;;3.08;;
47103;SDS011;32853;52.164;5.400;2023-06-10T02:06:40;17.02;;;3.53;;
47103;SDS011;32853;52.164;5.400;2023-06-10T02:09:06;5.23;;;2.80;;
47103;SDS011;32853;52.164;5.400;2023-06-10T02:11:31;5.25;;;2.45;;
47103;SDS011;32853;52.164;5.400;2023-06-10T02:13:57;8.18;;;2.45;;
47103;SDS011;32853;52.164;5.400;2023-06-10T02:16:22;5.75;;;2.33;;
47103;SDS011;32853;52.164;5.400;2023-06-10T02:18:51;9.00;;;2.42;;
47103;SDS011;32853;52.164;5.400;2023-06-10T02:21:17;6.72;;;3.03;;
47103;SDS011;32853;52.164;5.400;2023-06-10T02:23:42;3.47;;;1.85;;
47103;SDS011;32853;52.164;5.400;2023-06-10T02:26:22;8.75;;;2.88;;
47103;SDS011;32853;52.164;5.400;2023-06-10T02:28:52;6.95;;;2.58;;
47103;SDS011;32853;52.164;5.400;2023-06-10T02:31:20;7.72;;;2.65;;
47103;SDS011;32853;52.164;5.400;2023-06-10T02:33:46;4.05;;;2.40;;
47103;SDS011;32853;52.164;5.400;2023-06-10T02:36:12;9.48;;;3.55;;
47103;SDS011;32853;52.164;5.400;2023-06-10T02:38:39;10.10;;;3.75;;
47103;SDS011;32853;52.164;5.400;2023-06-10T02:41:10;7.20;;;2.50;;
47103;SDS011;32853;52.164;5.400;2023-06-10T02:46:09;4.57;;;2.85;;
47103;SDS011;32853;52.164;5.400;2023-06-10T02:48:46;8.48;;;3.38;;
47103;SDS011;32853;52.164;5.400;2023-06-10T02:51:15;4.47;;;2.42;;
47103;SDS011;32853;52.164;5.400;2023-06-10T02:53:53;6.88;;;3.17;;
47103;SDS011;32853;52.164;5.400;2023-06-10T02:56:31;5.80;;;2.50;;
47103;SDS011;32853;52.164;5.400;2023-06-10T02:59:04;4.78;;;2.30;;
47103;SDS011;32853;52.164;5.400;2023-06-10T03:04:21;11.00;;;2.75;;
47103;SDS011;32853;52.164;5.400;2023-06-10T03:06:51;7.38;;;2.60;;
47103;SDS011;32853;52.164;5.400;2023-06-10T03:09:20;7.57;;;2.90;;
47103;SDS011;32853;52.164;5.400;2023-06-10T03:14:45;5.72;;;2.47;;
47103;SDS011;32853;52.164;5.400;2023-06-10T03:17:11;5.72;;;2.42;;
47103;SDS011;32853;52.164;5.400;2023-06-10T03:19:36;6.68;;;2.42;;
47103;SDS011;32853;52.164;5.400;2023-06-10T03:22:12;4.78;;;2.80;;
47103;SDS011;32853;52.164;5.400;2023-06-10T03:24:43;6.15;;;2.80;;
47103;SDS011;32853;52.164;5.400;2023-06-10T03:27:12;6.18;;;3.30;;
47103;SDS011;32853;52.164;5.400;2023-06-10T03:29:40;9.18;;;2.97;;
47103;SDS011;32853;52.164;5.400;2023-06-10T03:32:07;6.05;;;2.85;;
47103;SDS011;32853;52.164;5.400;2023-06-10T03:34:33;8.18;;;3.67;;
47103;SDS011;32853;52.164;5.400;2023-06-10T03:36:58;6.65;;;2.75;;
47103;SDS011;32853;52.164;5.400;2023-06-10T03:39:25;8.63;;;3.30;;
47103;SDS011;32853;52.164;5.400;2023-06-10T03:41:53;7.82;;;3.58;;
47103;SDS011;32853;52.164;5.400;2023-06-10T03:44:19;8.23;;;2.95;;
47103;SDS011;32853;52.164;5.400;2023-06-10T03:46:47;4.88;;;2.85;;
47103;SDS011;32853;52.164;5.400;2023-06-10T03:49:12;6.32;;;3.22;;
47103;SDS011;32853;52.164;5.400;2023-06-10T03:51:38;6.35;;;2.92;;
47103;SDS011;32853;52.164;5.400;2023-06-10T03:54:03;8.10;;;2.92;;
47103;SDS011;32853;52.164;5.400;2023-06-10T03:56:28;6.80;;;3.00;;
47103;SDS011;32853;52.164;5.400;2023-06-10T03:58:54;7.43;;;3.25;;
47103;SDS011;32853;52.164;5.400;2023-06-10T04:01:20;10.25;;;3.30;;
47103;SDS011;32853;52.164;5.400;2023-06-10T04:03:46;10.07;;;3.42;;
47103;SDS011;32853;52.164;5.400;2023-06-10T04:06:14;8.45;;;2.92;;
47103;SDS011;32853;52.164;5.400;2023-06-10T04:08:39;5.43;;;2.80;;
47103;SDS011;32853;52.164;5.400;2023-06-10T04:11:14;9.38;;;3.22;;
47103;SDS011;32853;52.164;5.400;2023-06-10T04:13:40;5.82;;;3.00;;
47103;SDS011;32853;52.164;5.400;2023-06-10T04:16:08;3.90;;;2.58;;
47103;SDS011;32853;52.164;5.400;2023-06-10T04:18:34;5.40;;;2.97;;
47103;SDS011;32853;52.164;5.400;2023-06-10T04:21:01;4.72;;;2.75;;
47103;SDS011;32853;52.164;5.400;2023-06-10T04:23:26;6.68;;;3.05;;
47103;SDS011;32853;52.164;5.400;2023-06-10T04:25:51;13.25;;;3.92;;
47103;SDS011;32853;52.164;5.400;2023-06-10T04:28:17;4.43;;;2.83;;
47103;SDS011;32853;52.164;5.400;2023-06-10T04:30:42;8.25;;;3.05;;
47103;SDS011;32853;52.164;5.400;2023-06-10T04:33:07;6.40;;;3.00;;
47103;SDS011;32853;52.164;5.400;2023-06-10T04:35:34;4.80;;;2.53;;
47103;SDS011;32853;52.164;5.400;2023-06-10T04:37:59;7.60;;;2.97;;
47103;SDS011;32853;52.164;5.400;2023-06-10T04:40:27;7.32;;;3.38;;
47103;SDS011;32853;52.164;5.400;2023-06-10T04:42:59;8.50;;;3.10;;
47103;SDS011;32853;52.164;5.400;2023-06-10T04:45:24;9.48;;;3.72;;
47103;SDS011;32853;52.164;5.400;2023-06-10T04:47:49;5.90;;;3.10;;
47103;SDS011;32853;52.164;5.400;2023-06-10T04:50:15;4.70;;;2.92;;
47103;SDS011;32853;52.164;5.400;2023-06-10T04:52:42;6.78;;;3.03;;
47103;SDS011;32853;52.164;5.400;2023-06-10T04:55:16;8.68;;;3.20;;
47103;SDS011;32853;52.164;5.400;2023-06-10T04:57:42;12.82;;;4.70;;
47103;SDS011;32853;52.164;5.400;2023-06-10T05:00:09;9.00;;;3.28;;
47103;SDS011;32853;52.164;5.400;2023-06-10T05:02:48;8.00;;;2.85;;
47103;SDS011;32853;52.164;5.400;2023-06-10T05:05:16;6.35;;;3.53;;
47103;SDS011;32853;52.164;5.400;2023-06-10T05:07:51;6.18;;;2.97;;
47103;SDS011;32853;52.164;5.400;2023-06-10T05:10:17;7.22;;;3.15;;
47103;SDS011;32853;52.164;5.400;2023-06-10T05:12:45;7.60;;;2.65;;
47103;SDS011;32853;52.164;5.400;2023-06-10T05:15:29;8.05;;;2.72;;
47103;SDS011;32853;52.164;5.400;2023-06-10T05:17:56;7.38;;;3.28;;
47103;SDS011;32853;52.164;5.400;2023-06-10T05:20:22;8.57;;;3.58;;
47103;SDS011;32853;52.164;5.400;2023-06-10T05:22:48;6.75;;;3.60;;
47103;SDS011;32853;52.164;5.400;2023-06-10T05:25:18;6.03;;;3.03;;
47103;SDS011;32853;52.164;5.400;2023-06-10T05:27:45;6.28;;;3.50;;
47103;SDS011;32853;52.164;5.400;2023-06-10T05:30:13;10.43;;;4.05;;
47103;SDS011;32853;52.164;5.400;2023-06-10T05:32:43;7.82;;;3.13;;
47103;SDS011;32853;52.164;5.400;2023-06-10T05:35:08;6.75;;;3.25;;
47103;SDS011;32853;52.164;5.400;2023-06-10T05:37:33;7.35;;;3.55;;
47103;SDS011;32853;52.164;5.400;2023-06-10T05:40:00;7.90;;;3.08;;
47103;SDS011;32853;52.164;5.400;2023-06-10T05:42:25;6.00;;;3.65;;
47103;SDS011;32853;52.164;5.400;2023-06-10T05:44:50;10.52;;;4.18;;
47103;SDS011;32853;52.164;5.400;2023-06-10T05:47:16;6.95;;;2.85;;
47103;SDS011;32853;52.164;5.400;2023-06-10T05:49:48;5.70;;;3.10;;
47103;SDS011;32853;52.164;5.400;2023-06-10T05:52:15;5.88;;;3.05;;
47103;SDS011;32853;52.164;5.400;2023-06-10T05:54:40;6.97;;;2.83;;
47103;SDS011;32853;52.164;5.400;2023-06-10T05:57:05;5.07;;;3.35;;
47103;SDS011;32853;52.164;5.400;2023-06-10T05:59:31;10.07;;;3.22;;
47103;SDS011;32853;52.164;5.400;2023-06-10T06:01:58;9.02;;;3.00;;
47103;SDS011;32853;52.164;5.400;2023-06-10T06:04:24;7.30;;;3.03;;
47103;SDS011;32853;52.164;5.400;2023-06-10T06:06:58;7.13;;;3.08;;
47103;SDS011;32853;52.164;5.400;2023-06-10T06:09:25;7.07;;;2.92;;
47103;SDS011;32853;52.164;5.400;2023-06-10T06:14:21;5.97;;;2.95;;
47103;SDS011;32853;52.164;5.400;2023-06-10T06:16:46;10.38;;;3.15;;
47103;SDS011;32853;52.164;5.400;2023-06-10T06:19:12;7.80;;;3.33;;
47103;SDS011;32853;52.164;5.400;2023-06-10T06:21:37;14.70;;;3.20;;
47103;SDS011;32853;52.164;5.400;2023-06-10T06:24:02;5.47;;;3.03;;
47103;SDS011;32853;52.164;5.400;2023-06-10T06:26:28;7.45;;;3.22;;
47103;SDS011;32853;52.164;5.400;2023-06-10T06:28:53;7.20;;;3.22;;
47103;SDS011;32853;52.164;5.400;2023-06-10T06:31:18;6.75;;;3.13;;
47103;SDS011;32853;52.164;5.400;2023-06-10T06:33:44;7.25;;;2.70;;
47103;SDS011;32853;52.164;5.400;2023-06-10T06:36:15;5.78;;;3.30;;
47103;SDS011;32853;52.164;5.400;2023-06-10T06:38:42;6.63;;;3.10;;
47103;SDS011;32853;52.164;5.400;2023-06-10T06:41:07;7.78;;;2.88;;
47103;SDS011;32853;52.164;5.400;2023-06-10T06:43:33;8.27;;;3.17;;
47103;SDS011;32853;52.164;5.400;2023-06-10T06:45:59;7.65;;;2.78;;
47103;SDS011;32853;52.164;5.400;2023-06-10T06:48:24;7.03;;;3.33;;
47103;SDS011;32853;52.164;5.400;2023-06-10T06:50:51;8.10;;;2.97;;
47103;SDS011;32853;52.164;5.400;2023-06-10T06:53:17;6.50;;;3.42;;
47103;SDS011;32853;52.164;5.400;2023-06-10T06:55:42;5.65;;;2.88;;
47103;SDS011;32853;52.164;5.400;2023-06-10T06:58:07;6.05;;;3.50;;
47103;SDS011;32853;52.164;5.400;2023-06-10T07:03:03;7.38;;;3.65;;
47103;SDS011;32853;52.164;5.400;2023-06-10T07:05:28;9.75;;;3.47;;
47103;SDS011;32853;52.164;5.400;2023-06-10T07:07:56;10.50;;;3.15;;
47103;SDS011;32853;52.164;5.400;2023-06-10T07:10:23;11.38;;;3.03;;
47103;SDS011;32853;52.164;5.400;2023-06-10T07:12:50;5.32;;;3.38;;
47103;SDS011;32853;52.164;5.400;2023-06-10T07:15:21;7.43;;;3.03;;
47103;SDS011;32853;52.164;5.400;2023-06-10T07:17:46;5.40;;;2.88;;
47103;SDS011;32853;52.164;5.400;2023-06-10T07:20:11;9.07;;;2.95;;
47103;SDS011;32853;52.164;5.400;2023-06-10T07:22:42;10.32;;;2.67;;
47103;SDS011;32853;52.164;5.400;2023-06-10T07:25:09;10.45;;;3.22;;
47103;SDS011;32853;52.164;5.400;2023-06-10T07:27:35;11.25;;;3.42;;
47103;SDS011;32853;52.164;5.400;2023-06-10T07:30:02;5.65;;;2.58;;
47103;SDS011;32853;52.164;5.400;2023-06-10T07:32:29;7.82;;;2.75;;
47103;SDS011;32853;52.164;5.400;2023-06-10T07:34:54;7.80;;;2.20;;
47103;SDS011;32853;52.164;5.400;2023-06-10T07:37:20;5.18;;;3.03;;
47103;SDS011;32853;52.164;5.400;2023-06-10T07:39:45;6.53;;;2.63;;
47103;SDS011;32853;52.164;5.400;2023-06-10T07:42:11;7.97;;;3.58;;
47103;SDS011;32853;52.164;5.400;2023-06-10T07:44:36;7.88;;;2.92;;
47103;SDS011;32853;52.164;5.400;2023-06-10T07:47:03;8.05;;;3.60;;
47103;SDS011;32853;52.164;5.400;2023-06-10T07:49:28;12.25;;;2.55;;
47103;SDS011;32853;52.164;5.400;2023-06-10T07:51:55;12.45;;;3.58;;
47103;SDS011;32853;52.164;5.400;2023-06-10T07:54:25;7.75;;;2.88;;
47103;SDS011;32853;52.164;5.400;2023-06-10T07:59:46;7.93;;;3.17;;
47103;SDS011;32853;52.164;5.400;2023-06-10T08:02:18;7.18;;;3.42;;
47103;SDS011;32853;52.164;5.400;2023-06-10T08:04:49;18.33;;;3.03;;
47103;SDS011;32853;52.164;5.400;2023-06-10T08:07:25;11.85;;;2.83;;
47103;SDS011;32853;52.164;5.400;2023-06-10T08:09:51;6.22;;;2.83;;
47103;SDS011;32853;52.164;5.400;2023-06-10T08:12:16;7.00;;;2.97;;
47103;SDS011;32853;52.164;5.400;2023-06-10T08:14:41;7.28;;;3.05;;
47103;SDS011;32853;52.164;5.400;2023-06-10T08:19:42;8.50;;;3.08;;
47103;SDS011;32853;52.164;5.400;2023-06-10T08:22:08;4.57;;;3.00;;
47103;SDS011;32853;52.164;5.400;2023-06-10T08:24:33;7.10;;;3.25;;
47103;SDS011;32853;52.164;5.400;2023-06-10T08:26:59;7.05;;;3.20;;
47103;SDS011;32853;52.164;5.400;2023-06-10T08:29:24;7.07;;;2.65;;
47103;SDS011;32853;52.164;5.400;2023-06-10T08:31:50;7.18;;;3.53;;
47103;SDS011;32853;52.164;5.400;2023-06-10T08:34:15;6.53;;;2.67;;
47103;SDS011;32853;52.164;5.400;2023-06-10T08:36:41;7.28;;;2.80;;
47103;SDS011;32853;52.164;5.400;2023-06-10T08:39:06;14.88;;;3.08;;
47103;SDS011;32853;52.164;5.400;2023-06-10T08:41:35;5.60;;;2.75;;
47103;SDS011;32853;52.164;5.400;2023-06-10T08:46:35;6.22;;;2.80;;
47103;SDS011;32853;52.164;5.400;2023-06-10T08:49:18;7.72;;;2.00;;
47103;SDS011;32853;52.164;5.400;2023-06-10T08:51:47;3.90;;;2.58;;
47103;SDS011;32853;52.164;5.400;2023-06-10T08:54:17;6.30;;;2.88;;
47103;SDS011;32853;52.164;5.400;2023-06-10T08:56:48;8.52;;;2.80;;
47103;SDS011;32853;52.164;5.400;2023-06-10T08:59:26;4.40;;;2.50;;
47103;SDS011;32853;52.164;5.400;2023-06-10T09:02:04;6.78;;;2.60;;
47103;SDS011;32853;52.164;5.400;2023-06-10T09:07:03;7.32;;;2.53;;
47103;SDS011;32853;52.164;5.400;2023-06-10T09:09:34;4.47;;;2.22;;
47103;SDS011;32853;52.164;5.400;2023-06-10T09:12:00;7.07;;;2.73;;
47103;SDS011;32853;52.164;5.400;2023-06-10T09:16:58;4.95;;;2.08;;
47103;SDS011;32853;52.164;5.400;2023-06-10T09:19:24;5.22;;;2.75;;
47103;SDS011;32853;52.164;5.400;2023-06-10T09:21:58;4.03;;;2.13;;
47103;SDS011;32853;52.164;5.400;2023-06-10T09:24:31;6.38;;;2.38;;
47103;SDS011;32853;52.164;5.400;2023-06-10T09:27:04;3.95;;;2.17;;
47103;SDS011;32853;52.164;5.400;2023-06-10T09:29:54;6.30;;;2.30;;
47103;SDS011;32853;52.164;5.400;2023-06-10T09:32:20;5.65;;;2.67;;
47103;SDS011;32853;52.164;5.400;2023-06-10T09:34:46;4.90;;;2.53;;
47103;SDS011;32853;52.164;5.400;2023-06-10T09:37:13;4.75;;;2.28;;
47103;SDS011;32853;52.164;5.400;2023-06-10T09:39:45;3.63;;;2.35;;
47103;SDS011;32853;52.164;5.400;2023-06-10T09:42:27;6.90;;;2.40;;
47103;SDS011;32853;52.164;5.400;2023-06-10T09:44:52;7.70;;;2.20;;
47103;SDS011;32853;52.164;5.400;2023-06-10T09:47:23;3.70;;;2.10;;
47103;SDS011;32853;52.164;5.400;2023-06-10T09:49:50;6.18;;;3.17;;
47103;SDS011;32853;52.164;5.400;2023-06-10T09:52:27;9.15;;;2.47;;
47103;SDS011;32853;52.164;5.400;2023-06-10T09:55:00;4.60;;;2.30;;
47103;SDS011;32853;52.164;5.400;2023-06-10T09:57:34;5.68;;;2.78;;
47103;SDS011;32853;52.164;5.400;2023-06-10T10:00:06;4.07;;;2.50;;
47103;SDS011;32853;52.164;5.400;2023-06-10T10:02:37;6.05;;;2.50;;
47103;SDS011;32853;52.164;5.400;2023-06-10T10:05:16;5.63;;;1.85;;
47103;SDS011;32853;52.164;5.400;2023-06-10T10:07:49;4.45;;;2.17;;
47103;SDS011;32853;52.164;5.400;2023-06-10T10:10:22;3.92;;;2.25;;
47103;SDS011;32853;52.164;5.400;2023-06-10T10:12:54;12.48;;;2.72;;
47103;SDS011;32853;52.164;5.400;2023-06-10T10:15:38;4.60;;;2.47;;
47103;SDS011;32853;52.164;5.400;2023-06-10T10:18:15;9.48;;;2.08;;
47103;SDS011;32853;52.164;5.400;2023-06-10T10:20:49;6.57;;;2.00;;
47103;SDS011;32853;52.164;5.400;2023-06-10T10:23:41;4.60;;;2.05;;
47103;SDS011;32853;52.164;5.400;2023-06-10T10:26:12;4.93;;;2.22;;
47103;SDS011;32853;52.164;5.400;2023-06-10T10:28:41;6.72;;;2.63;;
47103;SDS011;32853;52.164;5.400;2023-06-10T10:31:15;3.30;;;1.73;;
47103;SDS011;32853;52.164;5.400;2023-06-10T10:34:18;3.40;;;1.77;;
47103;SDS011;32853;52.164;5.400;2023-06-10T10:36:40;5.53;;;1.80;;
47103;SDS011;32853;52.164;5.400;2023-06-10T10:39:06;2.78;;;1.58;;
47103;SDS011;32853;52.164;5.400;2023-06-10T10:41:32;3.65;;;2.05;;
47103;SDS011;32853;52.164;5.400;2023-06-10T10:43:59;4.93;;;1.80;;
47103;SDS011;32853;52.164;5.400;2023-06-10T10:46:25;6.25;;;1.80;;
47103;SDS011;32853;52.164;5.400;2023-06-10T10:48:54;3.63;;;2.00;;
47103;SDS011;32853;52.164;5.400;2023-06-10T10:51:22;4.18;;;2.03;;
47103;SDS011;32853;52.164;5.400;2023-06-10T10:56:38;3.63;;;2.03;;
47103;SDS011;32853;52.164;5.400;2023-06-10T10:59:19;2.72;;;1.60;;
47103;SDS011;32853;52.164;5.400;2023-06-10T11:01:45;3.58;;;1.88;;
47103;SDS011;32853;52.164;5.400;2023-06-10T11:04:11;3.55;;;1.90;;
47103;SDS011;32853;52.164;5.400;2023-06-10T11:06:37;7.05;;;1.73;;
47103;SDS011;32853;52.164;5.400;2023-06-10T11:09:25;4.25;;;1.67;;
47103;SDS011;32853;52.164;5.400;2023-06-10T11:11:59;4.57;;;2.40;;
47103;SDS011;32853;52.164;5.400;2023-06-10T11:14:28;3.72;;;2.05;;
47103;SDS011;32853;52.164;5.400;2023-06-10T11:17:04;4.35;;;1.95;;
47103;SDS011;32853;52.164;5.400;2023-06-10T11:19:43;4.05;;;2.08;;
47103;SDS011;32853;52.164;5.400;2023-06-10T11:22:16;4.40;;;1.77;;
47103;SDS011;32853;52.164;5.400;2023-06-10T11:24:51;3.38;;;1.80;;
47103;SDS011;32853;52.164;5.400;2023-06-10T11:30:18;2.88;;;2.03;;
47103;SDS011;32853;52.164;5.400;2023-06-10T11:32:45;6.07;;;2.53;;
47103;SDS011;32853;52.164;5.400;2023-06-10T11:35:16;9.30;;;2.53;;
47103;SDS011;32853;52.164;5.400;2023-06-10T11:37:43;3.97;;;1.75;;
47103;SDS011;32853;52.164;5.400;2023-06-10T11:40:09;3.80;;;1.60;;
47103;SDS011;32853;52.164;5.400;2023-06-10T11:42:38;5.28;;;1.73;;
47103;SDS011;32853;52.164;5.400;2023-06-10T11:45:05;5.45;;;3.05;;
47103;SDS011;32853;52.164;5.400;2023-06-10T11:47:33;6.38;;;2.40;;
47103;SDS011;32853;52.164;5.400;2023-06-10T11:50:06;7.00;;;2.00;;
47103;SDS011;32853;52.164;5.400;2023-06-10T11:52:52;5.22;;;1.90;;
47103;SDS011;32853;52.164;5.400;2023-06-10T11:55:20;2.50;;;1.58;;
47103;SDS011;32853;52.164;5.400;2023-06-10T11:57:46;11.95;;;2.35;;
47103;SDS011;32853;52.164;5.400;2023-06-10T12:00:15;6.30;;;2.13;;
47103;SDS011;32853;52.164;5.400;2023-06-10T12:02:41;4.30;;;2.25;;
47103;SDS011;32853;52.164;5.400;2023-06-10T12:05:13;3.42;;;1.80;;
47103;SDS011;32853;52.164;5.400;2023-06-10T12:07:39;3.67;;;1.58;;
47103;SDS011;32853;52.164;5.400;2023-06-10T12:10:05;8.48;;;2.08;;
47103;SDS011;32853;52.164;5.400;2023-06-10T12:12:36;13.05;;;2.47;;
47103;SDS011;32853;52.164;5.400;2023-06-10T12:15:02;2.40;;;1.60;;
47103;SDS011;32853;52.164;5.400;2023-06-10T12:20:00;8.60;;;2.38;;
47103;SDS011;32853;52.164;5.400;2023-06-10T12:22:39;4.43;;;2.65;;
47103;SDS011;32853;52.164;5.400;2023-06-10T12:25:06;12.93;;;2.22;;
47103;SDS011;32853;52.164;5.400;2023-06-10T12:27:39;7.63;;;2.10;;
47103;SDS011;32853;52.164;5.400;2023-06-10T12:30:18;7.82;;;2.67;;
47103;SDS011;32853;52.164;5.400;2023-06-10T12:32:49;7.00;;;2.30;;
47103;SDS011;32853;52.164;5.400;2023-06-10T12:35:24;6.30;;;2.00;;
47103;SDS011;32853;52.164;5.400;2023-06-10T12:37:54;4.07;;;2.20;;
47103;SDS011;32853;52.164;5.400;2023-06-10T12:40:25;3.17;;;2.10;;
47103;SDS011;32853;52.164;5.400;2023-06-10T12:42:53;5.22;;;2.00;;
47103;SDS011;32853;52.164;5.400;2023-06-10T12:48:06;6.75;;;2.25;;
47103;SDS011;32853;52.164;5.400;2023-06-10T12:50:39;7.55;;;2.15;;
47103;SDS011;32853;52.164;5.400;2023-06-10T12:53:06;5.88;;;2.40;;
47103;SDS011;32853;52.164;5.400;2023-06-10T12:55:32;5.57;;;2.10;;
47103;SDS011;32853;52.164;5.400;2023-06-10T12:58:01;4.60;;;2.40;;
47103;SDS011;32853;52.164;5.400;2023-06-10T13:00:28;4.63;;;2.20;;
47103;SDS011;32853;52.164;5.400;2023-06-10T13:02:56;6.85;;;2.08;;
47103;SDS011;32853;52.164;5.400;2023-06-10T13:05:22;3.53;;;1.70;;
47103;SDS011;32853;52.164;5.400;2023-06-10T13:07:48;4.60;;;1.88;;
47103;SDS011;32853;52.164;5.400;2023-06-10T13:10:14;3.75;;;2.30;;
47103;SDS011;32853;52.164;5.400;2023-06-10T13:12:41;6.25;;;1.88;;
47103;SDS011;32853;52.164;5.400;2023-06-10T13:15:07;3.88;;;1.83;;
47103;SDS011;32853;52.164;5.400;2023-06-10T13:17:33;3.85;;;1.95;;
47103;SDS011;32853;52.164;5.400;2023-06-10T13:20:02;3.97;;;1.70;;
47103;SDS011;32853;52.164;5.400;2023-06-10T13:22:30;3.95;;;2.15;;
47103;SDS011;32853;52.164;5.400;2023-06-10T13:24:57;3.10;;;2.08;;
47103;SDS011;32853;52.164;5.400;2023-06-10T13:27:26;3.88;;;1.95;;
47103;SDS011;32853;52.164;5.400;2023-06-10T13:29:52;7.50;;;2.55;;
47103;SDS011;32853;52.164;5.400;2023-06-10T13:32:17;4.95;;;1.98;;
47103;SDS011;32853;52.164;5.400;2023-06-10T13:34:43;3.60;;;1.77;;
47103;SDS011;32853;52.164;5.400;2023-06-10T13:37:08;4.78;;;2.20;;
47103;SDS011;32853;52.164;5.400;2023-06-10T13:39:34;8.82;;;2.33;;
47103;SDS011;32853;52.164;5.400;2023-06-10T13:41:59;5.20;;;2.10;;
47103;SDS011;32853;52.164;5.400;2023-06-10T13:44:24;3.03;;;1.80;;
47103;SDS011;32853;52.164;5.400;2023-06-10T13:46:50;3.08;;;1.67;;
47103;SDS011;32853;52.164;5.400;2023-06-10T13:49:15;5.78;;;1.98;;
47103;SDS011;32853;52.164;5.400;2023-06-10T13:51:40;3.72;;;2.08;;
47103;SDS011;32853;52.164;5.400;2023-06-10T13:54:06;3.35;;;2.13;;
47103;SDS011;32853;52.164;5.400;2023-06-10T13:56:32;5.18;;;2.13;;
47103;SDS011;32853;52.164;5.400;2023-06-10T13:59:03;3.65;;;2.65;;
47103;SDS011;32853;52.164;5.400;2023-06-10T14:01:30;10.30;;;2.08;;
47103;SDS011;32853;52.164;5.400;2023-06-10T14:03:56;3.42;;;1.90;;
47103;SDS011;32853;52.164;5.400;2023-06-10T14:06:21;3.20;;;1.83;;
47103;SDS011;32853;52.164;5.400;2023-06-10T14:08:48;4.40;;;2.55;;
47103;SDS011;32853;52.164;5.400;2023-06-10T14:11:15;7.15;;;2.33;;
47103;SDS011;32853;52.164;5.400;2023-06-10T14:13:42;5.00;;;2.13;;
47103;SDS011;32853;52.164;5.400;2023-06-10T14:16:07;3.50;;;1.92;;
47103;SDS011;32853;52.164;5.400;2023-06-10T14:18:36;5.25;;;2.40;;
47103;SDS011;32853;52.164;5.400;2023-06-10T14:21:01;5.15;;;2.10;;
47103;SDS011;32853;52.164;5.400;2023-06-10T14:23:26;8.30;;;2.20;;
47103;SDS011;32853;52.164;5.400;2023-06-10T14:25:52;3.90;;;2.28;;
47103;SDS011;32853;52.164;5.400;2023-06-10T14:28:17;15.30;;;2.38;;
47103;SDS011;32853;52.164;5.400;2023-06-10T14:30:43;3.63;;;2.00;;
47103;SDS011;32853;52.164;5.400;2023-06-10T14:33:08;3.65;;;1.88;;
47103;SDS011;32853;52.164;5.400;2023-06-10T14:35:33;4.75;;;1.42;;
47103;SDS011;32853;52.164;5.400;2023-06-10T14:37:58;6.25;;;2.08;;
47103;SDS011;32853;52.164;5.400;2023-06-10T14:40:24;2.47;;;1.70;;
47103;SDS011;32853;52.164;5.400;2023-06-10T14:42:51;3.97;;;2.10;;
47103;SDS011;32853;52.164;5.400;2023-06-10T14:45:16;5.68;;;1.98;;
47103;SDS011;32853;52.164;5.400;2023-06-10T14:47:42;6.40;;;1.90;;
47103;SDS011;32853;52.164;5.400;2023-06-10T14:50:08;3.72;;;2.22;;
47103;SDS011;32853;52.164;5.400;2023-06-10T14:52:33;4.40;;;2.08;;
47103;SDS011;32853;52.164;5.400;2023-06-10T14:54:59;4.00;;;1.85;;
47103;SDS011;32853;52.164;5.400;2023-06-10T14:57:24;8.48;;;2.00;;
47103;SDS011;32853;52.164;5.400;2023-06-10T14:59:53;3.90;;;2.17;;
47103;SDS011;32853;52.164;5.400;2023-06-10T15:02:21;7.63;;;2.20;;
47103;SDS011;32853;52.164;5.400;2023-06-10T15:04:46;4.95;;;1.67;;
47103;SDS011;32853;52.164;5.400;2023-06-10T15:07:11;3.65;;;1.80;;
47103;SDS011;32853;52.164;5.400;2023-06-10T15:09:37;2.92;;;1.85;;
47103;SDS011;32853;52.164;5.400;2023-06-10T15:12:02;6.25;;;1.55;;
47103;SDS011;32853;52.164;5.400;2023-06-10T15:14:28;6.43;;;1.70;;
47103;SDS011;32853;52.164;5.400;2023-06-10T15:16:54;3.35;;;1.83;;
47103;SDS011;32853;52.164;5.400;2023-06-10T15:19:20;8.20;;;2.25;;
47103;SDS011;32853;52.164;5.400;2023-06-10T15:21:46;7.65;;;4.38;;
47103;SDS011;32853;52.164;5.400;2023-06-10T15:24:11;18.98;;;13.07;;
47103;SDS011;32853;52.164;5.400;2023-06-10T15:26:37;71.88;;;39.67;;
47103;SDS011;32853;52.164;5.400;2023-06-10T15:29:02;47.00;;;21.70;;
47103;SDS011;32853;52.164;5.400;2023-06-10T15:31:29;33.95;;;15.77;;
47103;SDS011;32853;52.164;5.400;2023-06-10T15:33:56;44.53;;;23.02;;